CheckWX is a tool to help pilots better visualize weather data.  It is not intended as a substitute for an official pre-flight weather briefing.

03:38:11 UTC

KCLI METAR
Clintonville Municipal Airport
Clintonville, Wisconsin, USA
Current

23 mins ago

KCLI 080315Z AUTO 20012KT 10SM CLR 01/M03 A2998 RMK AO2 T00111026
Observed
Dec-8 @ 03:15 UTC
Wind
  • 200° at 12 KTS
Visibility
10 SM
Flight Rules
VFR
Cloud Levels
  • Clear skies
Temperature
C / 34°F
Dewpoint
-3°C / 27°F
Humidity
75%
Altimeter
29.98" Hg
Pressure
1015.22 hPa
Previous

43 mins ago

KCLI 080255Z AUTO 19011G16KT 10SM CLR 01/M02 A2998 RMK AO2 T00101025
Observed
Dec-8 @ 02:55 UTC
Wind
  • 190° at 11 KTS
  • Gusting to 16 KTS
Visibility
10 SM
Flight Rules
VFR
Cloud Levels
  • Clear skies
Temperature
C / 34°F
Dewpoint
-3°C / 27°F
Humidity
75%
Altimeter
29.98" Hg
Pressure
1015.22 hPa
Previous

1 hour ago

KCLI 080235Z AUTO 19012KT 10SM CLR 01/M02 A2999 RMK AO2 T00101025
Observed
Dec-8 @ 02:35 UTC
Wind
  • 190° at 12 KTS
Visibility
10 SM
Flight Rules
VFR
Cloud Levels
  • Clear skies
Temperature
C / 34°F
Dewpoint
-3°C / 27°F
Humidity
75%
Altimeter
29.99" Hg
Pressure
1015.62 hPa